Forrest, Australia
Current Conditions -  °F | °C
As of 12:00 PM on Friday 28 Nov 2014 (Local Time) from YCDU Reporting Station
Clear Clear  
Wind Chill: 93°   Ceiling: Unl
Heat Index: 93°   Visibility: 6mi
Dew Point: 34°   Wind: 7mph
Humidity: 12%   Direction: 270°W
Pressure: 29.88"   Gusts: NA
Location:  30.83°S, 128.1°E
Report Text: YCDU 280400Z AUTO 27006KT 210V360 9999 // NCD 34/01 Q1012
Loading
Personal Weather Stations






























Interactive Weather Map New forecast layout! Learn more

10-Day Weather Forecast

Advertisements
Track Severe Weather on mobile